Home   Weather   USA   Milwaukee   Past weeks
Flag for USA

Past Weather in Milwaukee, Wisconsin, USA — Yesterday and Last 2 Weeks

Currently: 61 °F. Sunny. (Weather station: Milwaukee / Timmerman, USA). See more current weather

Past Weather in Milwaukee — Graph

°F

Milwaukee Temperature Yesterday

Maximum temperature yesterday: 72 °F (at 2:45 pm)
Minimum temperature yesterday: 41 °F (at 1:35 am)
Average temperature yesterday: 51 °F

High & Low Weather Summary for the Past Weeks

 TemperatureHumidityPressure
High73 °F (Sep 20, 12:45 pm)94% (Sep 20, 10:55 pm)30.55 "Hg (Sep 20, 10:55 pm)
Low36 °F (Sep 29, 3:15 am)25% (Oct 4, 3:45 pm)29.70 "Hg (Sep 25, 2:35 am)
Average52 °F74%30.15 "Hg
* Reported Sep 20 9:30 am — Oct 5 8:45 am, Milwaukee. Weather by CustomWeather, © 2022

Note: Actual official high and low records may vary slightly from our data, if they occured in-between our weather recording intervals... More about our weather records

Milwaukee Weather History for the Previous 24 Hours

Scroll right to see more
 ConditionsComfort  
Time TempWeatherWind HumidityBarometerVisibility
8:45 am
Wed, Oct 5
52 °FSunny.3 mph72%30.12 "Hg10 mi
7:45 am45 °FSunny.No wind81%30.12 "Hg10 mi
7:15 am45 °FSunny.No wind76%30.12 "Hg10 mi
6:35 am45 °FClear.No wind81%30.13 "Hg10 mi
5:55 am43 °FClear.3 mph87%30.13 "Hg10 mi
5:35 am43 °FClear.No wind87%30.13 "Hg10 mi
4:35 am45 °FClear.No wind87%30.12 "Hg10 mi
3:55 am45 °FClear.No wind87%30.12 "Hg10 mi
3:35 am45 °FClear.No wind87%30.12 "Hg10 mi
3:15 am45 °FClear.No wind93%30.12 "Hg10 mi
2:35 am46 °FClear.No wind87%30.12 "Hg10 mi
2:15 am46 °FClear.No wind87%30.12 "Hg10 mi
1:35 am46 °FClear.No wind87%30.13 "Hg10 mi
12:55 am48 °FClear.No wind82%30.14 "Hg10 mi
12:15 am46 °FClear.No wind93%30.14 "Hg10 mi
11:55 pm
Tue, Oct 4
48 °FClear.No wind87%30.14 "Hg10 mi
11:35 pm50 °FClear.No wind82%30.15 "Hg10 mi
11:15 pm50 °FClear.No wind82%30.15 "Hg10 mi
10:55 pm50 °FClear.No wind82%30.15 "Hg10 mi
10:35 pm52 °FClear.No wind77%30.15 "Hg10 mi
8:45 pm55 °FClear.No wind72%30.17 "Hg10 mi
7:45 pm57 °FClear.No wind63%30.17 "Hg10 mi
5:45 pm66 °FSunny.5 mph46%30.15 "Hg10 mi
4:45 pm72 °FSunny.6 mph27%30.16 "Hg10 mi
3:45 pm72 °FSunny.6 mph25%30.17 "Hg10 mi
2:45 pm72 °FSunny.6 mph27%30.18 "Hg10 mi
1:45 pm70 °FSunny.6 mph27%30.21 "Hg10 mi
12:45 pm68 °FSunny.6 mph33%30.23 "Hg10 mi
11:45 am66 °FSunny.7 mph35%30.24 "Hg10 mi
10:45 am63 °FSunny.6 mph45%30.26 "Hg10 mi
Weather by CustomWeather, © 2022

See weather overview